sensor_id;sensor_type;location;lat;lon;timestamp;temperature;humidity
75387;DHT22;63966;47.914;22.266;2023-09-19T00:00:30;18.82;77.94
75387;DHT22;63966;47.914;22.266;2023-09-19T00:03:37;18.73;78.65
75387;DHT22;63966;47.914;22.266;2023-09-19T00:06:42;18.69;79.37
75387;DHT22;63966;47.914;22.266;2023-09-19T00:09:47;18.78;79.26
75387;DHT22;63966;47.914;22.266;2023-09-19T00:12:51;18.98;78.66
75387;DHT22;63966;47.914;22.266;2023-09-19T00:15:58;18.78;79.49
75387;DHT22;63966;47.914;22.266;2023-09-19T00:19:02;18.84;79.64
75387;DHT22;63966;47.914;22.266;2023-09-19T00:22:06;18.67;80.43
75387;DHT22;63966;47.914;22.266;2023-09-19T00:25:11;18.59;80.75
75387;DHT22;63966;47.914;22.266;2023-09-19T00:28:15;18.54;81.10
75387;DHT22;63966;47.914;22.266;2023-09-19T00:31:18;18.44;81.38
75387;DHT22;63966;47.914;22.266;2023-09-19T00:34:22;18.55;80.74
75387;DHT22;63966;47.914;22.266;2023-09-19T00:37:26;18.62;80.73
75387;DHT22;63966;47.914;22.266;2023-09-19T00:40:29;18.47;81.61
75387;DHT22;63966;47.914;22.266;2023-09-19T00:43:36;18.59;81.51
75387;DHT22;63966;47.914;22.266;2023-09-19T00:46:40;18.67;81.56
75387;DHT22;63966;47.914;22.266;2023-09-19T00:49:44;18.51;82.53
75387;DHT22;63966;47.914;22.266;2023-09-19T00:52:56;18.34;83.69
75387;DHT22;63966;47.914;22.266;2023-09-19T00:56:00;18.24;84.11
75387;DHT22;63966;47.914;22.266;2023-09-19T00:59:03;18.14;84.59
75387;DHT22;63966;47.914;22.266;2023-09-19T01:02:07;18.06;85.14
75387;DHT22;63966;47.914;22.266;2023-09-19T01:05:11;18.06;85.01
75387;DHT22;63966;47.914;22.266;2023-09-19T01:08:18;18.04;85.03
75387;DHT22;63966;47.914;22.266;2023-09-19T01:11:40;18.03;84.89
75387;DHT22;63966;47.914;22.266;2023-09-19T01:14:55;18.06;84.80
75387;DHT22;63966;47.914;22.266;2023-09-19T01:18:21;18.03;84.73
75387;DHT22;63966;47.914;22.266;2023-09-19T01:21:44;18.09;84.96
75387;DHT22;63966;47.914;22.266;2023-09-19T01:28:20;18.09;84.60
75387;DHT22;63966;47.914;22.266;2023-09-19T01:31:31;18.13;84.22
75387;DHT22;63966;47.914;22.266;2023-09-19T01:34:55;18.18;84.03
75387;DHT22;63966;47.914;22.266;2023-09-19T01:38:01;18.26;83.76
75387;DHT22;63966;47.914;22.266;2023-09-19T01:41:11;18.21;83.59
75387;DHT22;63966;47.914;22.266;2023-09-19T01:44:31;18.11;84.17
75387;DHT22;63966;47.914;22.266;2023-09-19T01:47:40;18.23;84.24
75387;DHT22;63966;47.914;22.266;2023-09-19T01:50:51;18.26;84.11
75387;DHT22;63966;47.914;22.266;2023-09-19T01:54:04;18.13;85.33
75387;DHT22;63966;47.914;22.266;2023-09-19T02:01:09;18.09;85.25
75387;DHT22;63966;47.914;22.266;2023-09-19T02:04:14;18.09;85.48
75387;DHT22;63966;47.914;22.266;2023-09-19T02:07:18;18.10;85.20
75387;DHT22;63966;47.914;22.266;2023-09-19T02:10:22;18.14;84.91
75387;DHT22;63966;47.914;22.266;2023-09-19T02:13:26;18.14;84.32
75387;DHT22;63966;47.914;22.266;2023-09-19T02:16:31;18.17;84.05
75387;DHT22;63966;47.914;22.266;2023-09-19T02:19:34;18.21;83.91
75387;DHT22;63966;47.914;22.266;2023-09-19T02:22:38;18.26;83.29
75387;DHT22;63966;47.914;22.266;2023-09-19T02:25:51;18.24;83.29
75387;DHT22;63966;47.914;22.266;2023-09-19T02:28:54;18.13;83.90
75387;DHT22;63966;47.914;22.266;2023-09-19T02:31:58;18.13;83.49
75387;DHT22;63966;47.914;22.266;2023-09-19T02:35:02;18.18;83.38
75387;DHT22;63966;47.914;22.266;2023-09-19T02:38:07;18.14;83.45
75387;DHT22;63966;47.914;22.266;2023-09-19T02:41:11;18.23;83.41
75387;DHT22;63966;47.914;22.266;2023-09-19T02:44:15;18.24;83.31
75387;DHT22;63966;47.914;22.266;2023-09-19T02:47:18;18.21;83.55
75387;DHT22;63966;47.914;22.266;2023-09-19T02:50:22;18.23;83.09
75387;DHT22;63966;47.914;22.266;2023-09-19T02:53:26;18.26;82.78
75387;DHT22;63966;47.914;22.266;2023-09-19T02:56:30;18.18;82.84
75387;DHT22;63966;47.914;22.266;2023-09-19T02:59:35;18.07;83.74
75387;DHT22;63966;47.914;22.266;2023-09-19T03:02:40;18.14;83.31
75387;DHT22;63966;47.914;22.266;2023-09-19T03:05:45;18.00;83.87
75387;DHT22;63966;47.914;22.266;2023-09-19T03:08:53;17.97;84.53
75387;DHT22;63966;47.914;22.266;2023-09-19T03:11:58;18.04;84.75
75387;DHT22;63966;47.914;22.266;2023-09-19T03:15:03;17.99;85.10
75387;DHT22;63966;47.914;22.266;2023-09-19T03:18:07;17.73;86.73
75387;DHT22;63966;47.914;22.266;2023-09-19T03:21:11;17.68;87.18
75387;DHT22;63966;47.914;22.266;2023-09-19T03:24:17;17.56;87.81
75387;DHT22;63966;47.914;22.266;2023-09-19T03:27:20;17.41;88.37
75387;DHT22;63966;47.914;22.266;2023-09-19T03:30:24;17.28;89.37
75387;DHT22;63966;47.914;22.266;2023-09-19T03:33:28;17.15;90.04
75387;DHT22;63966;47.914;22.266;2023-09-19T03:36:35;17.21;89.77
75387;DHT22;63966;47.914;22.266;2023-09-19T03:39:39;17.23;89.79
75387;DHT22;63966;47.914;22.266;2023-09-19T03:42:43;17.18;90.29
75387;DHT22;63966;47.914;22.266;2023-09-19T03:45:49;17.18;90.09
75387;DHT22;63966;47.914;22.266;2023-09-19T03:48:54;17.11;90.45
75387;DHT22;63966;47.914;22.266;2023-09-19T03:51:58;17.32;89.72
75387;DHT22;63966;47.914;22.266;2023-09-19T03:55:02;17.32;89.65
75387;DHT22;63966;47.914;22.266;2023-09-19T03:58:07;17.36;89.38
75387;DHT22;63966;47.914;22.266;2023-09-19T04:01:11;17.36;89.16
75387;DHT22;63966;47.914;22.266;2023-09-19T04:04:16;17.27;89.28
75387;DHT22;63966;47.914;22.266;2023-09-19T04:07:22;17.28;89.02
75387;DHT22;63966;47.914;22.266;2023-09-19T04:10:26;17.25;88.99
75387;DHT22;63966;47.914;22.266;2023-09-19T04:13:30;17.31;88.62
75387;DHT22;63966;47.914;22.266;2023-09-19T04:16:33;17.34;88.30
75387;DHT22;63966;47.914;22.266;2023-09-19T04:19:37;17.41;88.45
75387;DHT22;63966;47.914;22.266;2023-09-19T04:22:41;17.34;88.18
75387;DHT22;63966;47.914;22.266;2023-09-19T04:25:45;17.23;88.39
75387;DHT22;63966;47.914;22.266;2023-09-19T04:28:48;17.39;87.99
75387;DHT22;63966;47.914;22.266;2023-09-19T04:31:52;17.30;88.18
75387;DHT22;63966;47.914;22.266;2023-09-19T04:34:55;17.38;88.17
75387;DHT22;63966;47.914;22.266;2023-09-19T04:38:03;17.30;88.96
75387;DHT22;63966;47.914;22.266;2023-09-19T04:41:06;17.36;88.62
75387;DHT22;63966;47.914;22.266;2023-09-19T04:44:10;17.39;88.49
75387;DHT22;63966;47.914;22.266;2023-09-19T04:47:13;17.38;88.74
75387;DHT22;63966;47.914;22.266;2023-09-19T04:50:17;17.44;88.11
75387;DHT22;63966;47.914;22.266;2023-09-19T04:53:20;17.45;88.00
75387;DHT22;63966;47.914;22.266;2023-09-19T04:56:24;17.38;88.14
75387;DHT22;63966;47.914;22.266;2023-09-19T04:59:28;17.49;87.47
75387;DHT22;63966;47.914;22.266;2023-09-19T05:02:31;17.48;87.16
75387;DHT22;63966;47.914;22.266;2023-09-19T05:05:35;17.41;87.62
75387;DHT22;63966;47.914;22.266;2023-09-19T05:08:38;17.39;87.30
75387;DHT22;63966;47.914;22.266;2023-09-19T05:11:41;17.45;87.48
75387;DHT22;63966;47.914;22.266;2023-09-19T05:14:45;17.44;87.35
75387;DHT22;63966;47.914;22.266;2023-09-19T05:17:52;17.48;87.58
75387;DHT22;63966;47.914;22.266;2023-09-19T05:21:02;17.27;88.45
75387;DHT22;63966;47.914;22.266;2023-09-19T05:24:06;17.23;88.43
75387;DHT22;63966;47.914;22.266;2023-09-19T05:27:14;17.25;88.38
75387;DHT22;63966;47.914;22.266;2023-09-19T05:30:19;17.28;87.83
75387;DHT22;63966;47.914;22.266;2023-09-19T05:33:23;17.32;87.72
75387;DHT22;63966;47.914;22.266;2023-09-19T05:36:27;17.38;87.10
75387;DHT22;63966;47.914;22.266;2023-09-19T05:39:33;17.35;86.94
75387;DHT22;63966;47.914;22.266;2023-09-19T05:42:36;17.52;86.53
75387;DHT22;63966;47.914;22.266;2023-09-19T05:45:41;17.49;86.10
75387;DHT22;63966;47.914;22.266;2023-09-19T05:48:45;17.44;86.73
75387;DHT22;63966;47.914;22.266;2023-09-19T05:51:53;17.76;85.40
75387;DHT22;63966;47.914;22.266;2023-09-19T05:55:06;17.73;85.69
75387;DHT22;63966;47.914;22.266;2023-09-19T05:58:11;17.78;85.12
75387;DHT22;63966;47.914;22.266;2023-09-19T06:01:17;17.85;84.93
75387;DHT22;63966;47.914;22.266;2023-09-19T06:04:22;17.99;83.96
75387;DHT22;63966;47.914;22.266;2023-09-19T06:07:26;18.04;83.81
75387;DHT22;63966;47.914;22.266;2023-09-19T06:10:31;18.03;83.86
75387;DHT22;63966;47.914;22.266;2023-09-19T06:13:35;18.09;83.77
75387;DHT22;63966;47.914;22.266;2023-09-19T06:16:39;18.26;83.30
75387;DHT22;63966;47.914;22.266;2023-09-19T06:19:47;18.34;82.76
75387;DHT22;63966;47.914;22.266;2023-09-19T06:22:52;18.49;82.31
75387;DHT22;63966;47.914;22.266;2023-09-19T06:25:56;18.45;82.13
75387;DHT22;63966;47.914;22.266;2023-09-19T06:29:01;18.89;81.10
75387;DHT22;63966;47.914;22.266;2023-09-19T06:32:08;18.95;80.37
75387;DHT22;63966;47.914;22.266;2023-09-19T06:35:13;19.00;80.67
75387;DHT22;63966;47.914;22.266;2023-09-19T06:38:17;19.05;80.14
75387;DHT22;63966;47.914;22.266;2023-09-19T06:41:22;18.88;81.47
75387;DHT22;63966;47.914;22.266;2023-09-19T06:44:28;18.84;80.52
75387;DHT22;63966;47.914;22.266;2023-09-19T06:47:32;19.00;79.77
75387;DHT22;63966;47.914;22.266;2023-09-19T06:50:36;19.20;79.80
75387;DHT22;63966;47.914;22.266;2023-09-19T06:53:40;19.24;79.47
75387;DHT22;63966;47.914;22.266;2023-09-19T06:56:44;19.33;77.57
75387;DHT22;63966;47.914;22.266;2023-09-19T07:00:09;19.22;78.52
75387;DHT22;63966;47.914;22.266;2023-09-19T07:03:18;19.57;77.74
75387;DHT22;63966;47.914;22.266;2023-09-19T07:06:24;19.47;78.03
75387;DHT22;63966;47.914;22.266;2023-09-19T07:09:28;19.74;77.42
75387;DHT22;63966;47.914;22.266;2023-09-19T07:12:32;19.72;76.14
75387;DHT22;63966;47.914;22.266;2023-09-19T07:15:39;19.64;77.20
75387;DHT22;63966;47.914;22.266;2023-09-19T07:18:46;19.85;76.86
75387;DHT22;63966;47.914;22.266;2023-09-19T07:21:49;19.96;76.56
75387;DHT22;63966;47.914;22.266;2023-09-19T07:24:53;20.50;74.07
75387;DHT22;63966;47.914;22.266;2023-09-19T07:27:58;20.91;73.34
75387;DHT22;63966;47.914;22.266;2023-09-19T07:31:04;21.09;71.73
75387;DHT22;63966;47.914;22.266;2023-09-19T07:34:10;22.03;69.79
75387;DHT22;63966;47.914;22.266;2023-09-19T07:37:13;24.13;64.07
75387;DHT22;63966;47.914;22.266;2023-09-19T07:40:19;23.26;63.52
75387;DHT22;63966;47.914;22.266;2023-09-19T07:43:24;23.47;63.71
75387;DHT22;63966;47.914;22.266;2023-09-19T07:46:28;23.90;61.84
75387;DHT22;63966;47.914;22.266;2023-09-19T07:49:34;22.95;65.01
75387;DHT22;63966;47.914;22.266;2023-09-19T07:52:37;24.31;61.12
75387;DHT22;63966;47.914;22.266;2023-09-19T07:55:42;24.65;59.99
75387;DHT22;63966;47.914;22.266;2023-09-19T07:58:51;26.53;54.67
75387;DHT22;63966;47.914;22.266;2023-09-19T08:01:55;26.53;54.79
75387;DHT22;63966;47.914;22.266;2023-09-19T08:05:00;27.65;52.11
75387;DHT22;63966;47.914;22.266;2023-09-19T08:08:24;25.75;54.99
75387;DHT22;63966;47.914;22.266;2023-09-19T08:11:29;25.81;55.69
75387;DHT22;63966;47.914;22.266;2023-09-19T08:14:34;25.36;56.47
75387;DHT22;63966;47.914;22.266;2023-09-19T08:17:38;25.09;58.87
75387;DHT22;63966;47.914;22.266;2023-09-19T08:21:12;25.32;57.71
75387;DHT22;63966;47.914;22.266;2023-09-19T08:24:44;25.45;57.60
75387;DHT22;63966;47.914;22.266;2023-09-19T08:28:18;25.39;58.74
75387;DHT22;63966;47.914;22.266;2023-09-19T08:31:42;25.57;58.24
75387;DHT22;63966;47.914;22.266;2023-09-19T08:34:47;25.19;59.88
75387;DHT22;63966;47.914;22.266;2023-09-19T08:37:56;24.88;60.86
75387;DHT22;63966;47.914;22.266;2023-09-19T08:41:01;24.88;60.36
75387;DHT22;63966;47.914;22.266;2023-09-19T08:44:08;24.67;60.44
75387;DHT22;63966;47.914;22.266;2023-09-19T08:47:16;24.47;61.18
75387;DHT22;63966;47.914;22.266;2023-09-19T08:50:29;24.46;61.63
75387;DHT22;63966;47.914;22.266;2023-09-19T08:53:54;24.41;61.47
75387;DHT22;63966;47.914;22.266;2023-09-19T08:57:07;24.70;60.90
75387;DHT22;63966;47.914;22.266;2023-09-19T09:00:15;24.53;61.44
75387;DHT22;63966;47.914;22.266;2023-09-19T09:03:22;24.50;62.85
75387;DHT22;63966;47.914;22.266;2023-09-19T09:06:26;24.14;62.42
75387;DHT22;63966;47.914;22.266;2023-09-19T09:09:31;24.72;61.57
75387;DHT22;63966;47.914;22.266;2023-09-19T09:12:38;24.82;61.12
75387;DHT22;63966;47.914;22.266;2023-09-19T09:15:44;24.70;61.31
75387;DHT22;63966;47.914;22.266;2023-09-19T09:18:50;25.11;60.72
75387;DHT22;63966;47.914;22.266;2023-09-19T09:22:11;25.64;59.23
75387;DHT22;63966;47.914;22.266;2023-09-19T09:25:15;25.77;59.44
75387;DHT22;63966;47.914;22.266;2023-09-19T09:28:23;25.80;59.51
75387;DHT22;63966;47.914;22.266;2023-09-19T09:31:27;26.15;58.51
75387;DHT22;63966;47.914;22.266;2023-09-19T09:34:34;26.05;58.30
75387;DHT22;63966;47.914;22.266;2023-09-19T09:37:37;26.15;57.72
75387;DHT22;63966;47.914;22.266;2023-09-19T09:40:52;26.48;57.29
75387;DHT22;63966;47.914;22.266;2023-09-19T09:44:17;26.52;57.46
75387;DHT22;63966;47.914;22.266;2023-09-19T09:47:48;26.24;57.71
75387;DHT22;63966;47.914;22.266;2023-09-19T09:51:01;26.14;57.97
75387;DHT22;63966;47.914;22.266;2023-09-19T09:54:26;26.15;58.25
75387;DHT22;63966;47.914;22.266;2023-09-19T09:57:42;25.70;58.96
75387;DHT22;63966;47.914;22.266;2023-09-19T10:00:57;25.57;59.80
75387;DHT22;63966;47.914;22.266;2023-09-19T10:04:00;25.59;59.88
75387;DHT22;63966;47.914;22.266;2023-09-19T10:07:04;26.04;58.97
75387;DHT22;63966;47.914;22.266;2023-09-19T10:10:09;25.93;57.77
75387;DHT22;63966;47.914;22.266;2023-09-19T10:13:20;25.83;59.65
75387;DHT22;63966;47.914;22.266;2023-09-19T10:16:30;25.73;60.02
75387;DHT22;63966;47.914;22.266;2023-09-19T10:19:55;25.22;60.43
75387;DHT22;63966;47.914;22.266;2023-09-19T10:23:05;24.57;62.05
75387;DHT22;63966;47.914;22.266;2023-09-19T10:26:15;24.65;62.35
75387;DHT22;63966;47.914;22.266;2023-09-19T10:29:20;24.65;62.27
75387;DHT22;63966;47.914;22.266;2023-09-19T10:32:26;24.34;63.10
75387;DHT22;63966;47.914;22.266;2023-09-19T10:35:32;24.05;64.34
75387;DHT22;63966;47.914;22.266;2023-09-19T10:38:38;24.09;64.07
75387;DHT22;63966;47.914;22.266;2023-09-19T10:41:47;24.17;63.87
75387;DHT22;63966;47.914;22.266;2023-09-19T10:44:58;24.13;63.43
75387;DHT22;63966;47.914;22.266;2023-09-19T10:48:03;24.44;63.42
75387;DHT22;63966;47.914;22.266;2023-09-19T10:51:16;24.99;61.57
75387;DHT22;63966;47.914;22.266;2023-09-19T10:54:23;24.84;61.17
75387;DHT22;63966;47.914;22.266;2023-09-19T10:57:30;24.74;62.03
75387;DHT22;63966;47.914;22.266;2023-09-19T11:00:53;24.47;62.94
75387;DHT22;63966;47.914;22.266;2023-09-19T11:04:30;24.16;63.87
75387;DHT22;63966;47.914;22.266;2023-09-19T11:07:57;23.95;64.34
75387;DHT22;63966;47.914;22.266;2023-09-19T11:11:03;24.16;64.05
75387;DHT22;63966;47.914;22.266;2023-09-19T11:17:32;24.10;63.63
75387;DHT22;63966;47.914;22.266;2023-09-19T11:20:36;24.24;62.94
75387;DHT22;63966;47.914;22.266;2023-09-19T11:27:30;24.59;62.39
75387;DHT22;63966;47.914;22.266;2023-09-19T11:30:42;24.61;61.92
75387;DHT22;63966;47.914;22.266;2023-09-19T11:33:48;24.67;61.71
75387;DHT22;63966;47.914;22.266;2023-09-19T11:40:18;24.37;62.70
75387;DHT22;63966;47.914;22.266;2023-09-19T11:43:29;24.24;62.89
75387;DHT22;63966;47.914;22.266;2023-09-19T11:46:34;24.19;63.36
75387;DHT22;63966;47.914;22.266;2023-09-19T11:49:54;24.23;62.79
75387;DHT22;63966;47.914;22.266;2023-09-19T11:52:58;24.41;62.38
75387;DHT22;63966;47.914;22.266;2023-09-19T11:56:04;24.44;62.41
75387;DHT22;63966;47.914;22.266;2023-09-19T11:59:10;24.61;62.53
75387;DHT22;63966;47.914;22.266;2023-09-19T12:02:27;24.30;63.23
75387;DHT22;63966;47.914;22.266;2023-09-19T12:05:39;23.99;63.94
75387;DHT22;63966;47.914;22.266;2023-09-19T12:08:43;24.10;64.50
75387;DHT22;63966;47.914;22.266;2023-09-19T12:11:47;24.44;63.69
75387;DHT22;63966;47.914;22.266;2023-09-19T12:14:54;24.72;62.76
75387;DHT22;63966;47.914;22.266;2023-09-19T12:17:57;24.44;62.84
75387;DHT22;63966;47.914;22.266;2023-09-19T12:21:01;24.23;63.60
75387;DHT22;63966;47.914;22.266;2023-09-19T12:24:14;24.39;63.53
75387;DHT22;63966;47.914;22.266;2023-09-19T12:27:19;24.57;62.79
75387;DHT22;63966;47.914;22.266;2023-09-19T12:30:28;24.56;62.66
75387;DHT22;63966;47.914;22.266;2023-09-19T12:33:38;24.26;63.83
75387;DHT22;63966;47.914;22.266;2023-09-19T12:36:43;24.16;64.60
75387;DHT22;63966;47.914;22.266;2023-09-19T12:39:51;24.17;64.53
75387;DHT22;63966;47.914;22.266;2023-09-19T12:42:58;23.88;65.69
75387;DHT22;63966;47.914;22.266;2023-09-19T12:46:02;23.75;66.07
75387;DHT22;63966;47.914;22.266;2023-09-19T12:49:20;23.74;66.35
75387;DHT22;63966;47.914;22.266;2023-09-19T12:52:24;23.79;66.15
75387;DHT22;63966;47.914;22.266;2023-09-19T12:55:30;23.86;66.06
75387;DHT22;63966;47.914;22.266;2023-09-19T12:58:58;23.74;66.65
75387;DHT22;63966;47.914;22.266;2023-09-19T13:02:06;23.62;67.07
75387;DHT22;63966;47.914;22.266;2023-09-19T13:05:11;24.03;66.51
75387;DHT22;63966;47.914;22.266;2023-09-19T13:08:34;24.19;66.26
75387;DHT22;63966;47.914;22.266;2023-09-19T13:11:44;24.24;66.16
75387;DHT22;63966;47.914;22.266;2023-09-19T13:15:11;24.29;65.58
75387;DHT22;63966;47.914;22.266;2023-09-19T13:18:16;24.34;65.35
75387;DHT22;63966;47.914;22.266;2023-09-19T13:21:32;23.89;67.00
75387;DHT22;63966;47.914;22.266;2023-09-19T13:24:40;23.44;68.80
75387;DHT22;63966;47.914;22.266;2023-09-19T13:27:49;23.16;69.87
75387;DHT22;63966;47.914;22.266;2023-09-19T13:30:57;23.04;69.83
75387;DHT22;63966;47.914;22.266;2023-09-19T13:34:00;22.99;70.48
75387;DHT22;63966;47.914;22.266;2023-09-19T13:37:04;22.56;72.18
75387;DHT22;63966;47.914;22.266;2023-09-19T13:40:09;22.39;73.35
75387;DHT22;63966;47.914;22.266;2023-09-19T13:43:12;22.31;73.50
75387;DHT22;63966;47.914;22.266;2023-09-19T13:46:16;22.24;74.15
75387;DHT22;63966;47.914;22.266;2023-09-19T13:49:21;22.05;74.45
75387;DHT22;63966;47.914;22.266;2023-09-19T13:52:27;22.08;75.25
75387;DHT22;63966;47.914;22.266;2023-09-19T13:55:32;21.70;77.33
75387;DHT22;63966;47.914;22.266;2023-09-19T13:58:36;21.49;78.77
75387;DHT22;63966;47.914;22.266;2023-09-19T14:01:39;21.34;79.51
75387;DHT22;63966;47.914;22.266;2023-09-19T14:04:43;21.18;79.93
75387;DHT22;63966;47.914;22.266;2023-09-19T14:07:47;21.22;79.31
75387;DHT22;63966;47.914;22.266;2023-09-19T14:10:50;21.31;78.79
75387;DHT22;63966;47.914;22.266;2023-09-19T14:13:54;21.36;77.40
75387;DHT22;63966;47.914;22.266;2023-09-19T14:16:59;21.39;78.34
75387;DHT22;63966;47.914;22.266;2023-09-19T14:20:04;21.38;77.90
75387;DHT22;63966;47.914;22.266;2023-09-19T14:23:10;21.47;76.98
75387;DHT22;63966;47.914;22.266;2023-09-19T14:26:13;21.35;76.34
75387;DHT22;63966;47.914;22.266;2023-09-19T14:29:19;21.35;75.59
75387;DHT22;63966;47.914;22.266;2023-09-19T14:32:23;21.39;76.35
75387;DHT22;63966;47.914;22.266;2023-09-19T14:35:26;21.50;76.11
75387;DHT22;63966;47.914;22.266;2023-09-19T14:38:30;21.52;75.68
75387;DHT22;63966;47.914;22.266;2023-09-19T14:41:33;21.55;75.83
75387;DHT22;63966;47.914;22.266;2023-09-19T14:44:37;21.60;75.25
75387;DHT22;63966;47.914;22.266;2023-09-19T14:47:40;21.53;75.04
75387;DHT22;63966;47.914;22.266;2023-09-19T14:50:45;21.38;75.52
75387;DHT22;63966;47.914;22.266;2023-09-19T14:53:49;21.29;75.95
75387;DHT22;63966;47.914;22.266;2023-09-19T14:56:53;21.19;78.37
75387;DHT22;63966;47.914;22.266;2023-09-19T15:00:07;20.67;81.45
75387;DHT22;63966;47.914;22.266;2023-09-19T15:03:15;20.39;83.92
75387;DHT22;63966;47.914;22.266;2023-09-19T15:06:19;20.09;85.36
75387;DHT22;63966;47.914;22.266;2023-09-19T15:09:24;19.77;86.81
75387;DHT22;63966;47.914;22.266;2023-09-19T15:12:29;19.51;87.87
75387;DHT22;63966;47.914;22.266;2023-09-19T15:15:33;19.31;88.36
75387;DHT22;63966;47.914;22.266;2023-09-19T15:18:41;19.19;88.25
75387;DHT22;63966;47.914;22.266;2023-09-19T15:21:45;18.98;88.91
75387;DHT22;63966;47.914;22.266;2023-09-19T15:24:48;18.69;89.59
75387;DHT22;63966;47.914;22.266;2023-09-19T15:27:51;18.54;89.55
75387;DHT22;63966;47.914;22.266;2023-09-19T15:31:00;18.44;90.26
75387;DHT22;63966;47.914;22.266;2023-09-19T15:34:04;18.57;89.49
75387;DHT22;63966;47.914;22.266;2023-09-19T15:37:09;18.51;87.78
75387;DHT22;63966;47.914;22.266;2023-09-19T15:40:12;18.54;88.31
75387;DHT22;63966;47.914;22.266;2023-09-19T15:43:16;18.71;88.09
75387;DHT22;63966;47.914;22.266;2023-09-19T15:46:20;18.69;88.29
75387;DHT22;63966;47.914;22.266;2023-09-19T15:49:24;18.65;88.42
75387;DHT22;63966;47.914;22.266;2023-09-19T15:52:28;18.72;88.88
75387;DHT22;63966;47.914;22.266;2023-09-19T15:55:31;18.71;88.22
75387;DHT22;63966;47.914;22.266;2023-09-19T15:58:35;18.71;88.45
75387;DHT22;63966;47.914;22.266;2023-09-19T16:01:43;18.75;88.23
75387;DHT22;63966;47.914;22.266;2023-09-19T16:04:47;18.86;88.06
75387;DHT22;63966;47.914;22.266;2023-09-19T16:07:50;18.81;88.53
75387;DHT22;63966;47.914;22.266;2023-09-19T16:10:54;18.62;89.13
75387;DHT22;63966;47.914;22.266;2023-09-19T16:13:57;18.65;89.17
75387;DHT22;63966;47.914;22.266;2023-09-19T16:17:01;18.82;88.16
75387;DHT22;63966;47.914;22.266;2023-09-19T16:20:07;18.65;89.18
75387;DHT22;63966;47.914;22.266;2023-09-19T16:23:11;18.59;89.46
75387;DHT22;63966;47.914;22.266;2023-09-19T16:26:15;18.76;89.18
75387;DHT22;63966;47.914;22.266;2023-09-19T16:29:19;18.61;89.27
75387;DHT22;63966;47.914;22.266;2023-09-19T16:32:27;18.55;89.42
75387;DHT22;63966;47.914;22.266;2023-09-19T16:35:31;18.48;89.72
75387;DHT22;63966;47.914;22.266;2023-09-19T16:38:41;18.54;89.63
75387;DHT22;63966;47.914;22.266;2023-09-19T16:41:45;18.34;90.48
75387;DHT22;63966;47.914;22.266;2023-09-19T16:44:48;18.33;90.77
75387;DHT22;63966;47.914;22.266;2023-09-19T16:47:51;18.31;90.51
75387;DHT22;63966;47.914;22.266;2023-09-19T16:50:59;18.45;90.33
75387;DHT22;63966;47.914;22.266;2023-09-19T16:54:02;18.34;90.88
75387;DHT22;63966;47.914;22.266;2023-09-19T16:57:06;18.31;90.69
75387;DHT22;63966;47.914;22.266;2023-09-19T17:00:10;18.30;90.69
75387;DHT22;63966;47.914;22.266;2023-09-19T17:03:13;18.28;90.67
75387;DHT22;63966;47.914;22.266;2023-09-19T17:06:18;18.31;90.56
75387;DHT22;63966;47.914;22.266;2023-09-19T17:09:25;18.43;90.15
75387;DHT22;63966;47.914;22.266;2023-09-19T17:12:28;18.36;90.06
75387;DHT22;63966;47.914;22.266;2023-09-19T17:15:34;18.38;90.13
75387;DHT22;63966;47.914;22.266;2023-09-19T17:18:39;18.40;90.23
75387;DHT22;63966;47.914;22.266;2023-09-19T17:21:46;18.31;90.82
75387;DHT22;63966;47.914;22.266;2023-09-19T17:24:50;18.37;90.83
75387;DHT22;63966;47.914;22.266;2023-09-19T17:27:54;18.34;91.25
75387;DHT22;63966;47.914;22.266;2023-09-19T17:30:58;18.33;91.00
75387;DHT22;63966;47.914;22.266;2023-09-19T17:34:01;18.36;90.93
75387;DHT22;63966;47.914;22.266;2023-09-19T17:37:05;18.41;90.31
75387;DHT22;63966;47.914;22.266;2023-09-19T17:40:11;18.30;91.02
75387;DHT22;63966;47.914;22.266;2023-09-19T17:43:14;18.18;91.03
75387;DHT22;63966;47.914;22.266;2023-09-19T17:46:18;18.13;91.30
75387;DHT22;63966;47.914;22.266;2023-09-19T17:49:23;18.09;91.18
75387;DHT22;63966;47.914;22.266;2023-09-19T17:52:26;18.07;91.15
75387;DHT22;63966;47.914;22.266;2023-09-19T17:55:30;17.99;91.43
75387;DHT22;63966;47.914;22.266;2023-09-19T17:58:35;18.03;90.96
75387;DHT22;63966;47.914;22.266;2023-09-19T18:01:39;18.01;90.62
75387;DHT22;63966;47.914;22.266;2023-09-19T18:04:43;18.03;90.50
75387;DHT22;63966;47.914;22.266;2023-09-19T18:07:47;17.93;90.01
75387;DHT22;63966;47.914;22.266;2023-09-19T18:10:51;18.01;89.07
75387;DHT22;63966;47.914;22.266;2023-09-19T18:13:56;17.99;88.70
75387;DHT22;63966;47.914;22.266;2023-09-19T18:17:01;17.96;87.71
75387;DHT22;63966;47.914;22.266;2023-09-19T18:20:05;17.99;87.22
75387;DHT22;63966;47.914;22.266;2023-09-19T18:23:10;17.92;86.98
75387;DHT22;63966;47.914;22.266;2023-09-19T18:26:14;17.89;87.28
75387;DHT22;63966;47.914;22.266;2023-09-19T18:29:18;17.87;86.70
75387;DHT22;63966;47.914;22.266;2023-09-19T18:32:22;17.96;86.35
75387;DHT22;63966;47.914;22.266;2023-09-19T18:35:27;17.92;86.35
75387;DHT22;63966;47.914;22.266;2023-09-19T18:38:38;17.92;85.86
75387;DHT22;63966;47.914;22.266;2023-09-19T18:41:44;17.86;86.31
75387;DHT22;63966;47.914;22.266;2023-09-19T18:44:49;17.94;85.82
75387;DHT22;63966;47.914;22.266;2023-09-19T18:47:53;17.86;86.21
75387;DHT22;63966;47.914;22.266;2023-09-19T18:50:57;17.86;86.29
75387;DHT22;63966;47.914;22.266;2023-09-19T18:54:01;17.73;86.56
75387;DHT22;63966;47.914;22.266;2023-09-19T18:57:16;17.72;86.55
75387;DHT22;63966;47.914;22.266;2023-09-19T19:00:20;17.87;85.56
75387;DHT22;63966;47.914;22.266;2023-09-19T19:03:29;17.79;85.90
75387;DHT22;63966;47.914;22.266;2023-09-19T19:06:34;17.76;85.83
75387;DHT22;63966;47.914;22.266;2023-09-19T19:09:38;17.78;85.92
75387;DHT22;63966;47.914;22.266;2023-09-19T19:12:43;17.76;86.30
75387;DHT22;63966;47.914;22.266;2023-09-19T19:15:48;17.85;86.14
75387;DHT22;63966;47.914;22.266;2023-09-19T19:18:52;17.92;85.98
75387;DHT22;63966;47.914;22.266;2023-09-19T19:21:56;17.73;86.76
75387;DHT22;63966;47.914;22.266;2023-09-19T19:25:02;17.75;86.64
75387;DHT22;63966;47.914;22.266;2023-09-19T19:28:07;17.78;86.22
75387;DHT22;63966;47.914;22.266;2023-09-19T19:31:12;17.63;86.51
75387;DHT22;63966;47.914;22.266;2023-09-19T19:34:15;17.61;86.82
75387;DHT22;63966;47.914;22.266;2023-09-19T19:37:19;17.51;87.30